Terminal Aerodrome Forecast
Issued by NWS Cleveland, OH

Home | Current Version | Previous Version | Text Only | Print | Product List | Glossary On
Versions: 1 2 3 4 5 6 7 8 9 10 11 12 13 14 15 16 17 18 19 20 21 22 23 24 25 26 27 28 29 30 31
000
FTUS41 KCLE 271100
TAFTOL
TAF
KTOL 271128Z 2712/2812 36003KT P6SM FEW015 BKN120
      TEMPO 2712/2714 4SM BR
     FM271800 34010KT P6SM SCT025
     FM280400 32003KT P6SM SKC=

USA.gov is the U.S. government's official web portal to all federal, state and local government web resources and services.